Airfield :
LOGIN :

Register | Disclaimer

   EN    FR    IT 

 










Legend :    VFR   Marginal VFR   IFR   Intensive IFR   Very Intensive IFR
Visi :
Ceiling :
>= 8 km
>= 3000ft
5 to 8 km
1000 to 3000 ft
1500m to 5 km
500 to 1000 ft
800 to 1500m
200 to 500 ft
< 800m
< 200 ft
Symbols :   Thunderstorms  Fog  Heavy snow  Heavy precipitations  Wind > 20 kt
SIGMETs :     Misc.  Thunderstorms  Icing  Turbulence  Mountain Waves  Volcanic Ashes






- Airport Elevation : 288 ft
- IATA code : BZZ


EGVN - RAF Brize Norton

CURRENT METAR :
  • 270550Z 02005KT 9999 FEW046 BKN300 15/09 Q1036 NOSIG RMK BLU BLU

EXPIRED METARs :
  • 270520Z 01004KT 9999 FEW046 BKN300 14/09 Q1036 NOSIG RMK BLU BLU
  • 270450Z 02006KT 9999 FEW046 BKN300 13/09 Q1036 NOSIG RMK BLU BLU
  • 270420Z 02006KT 9999 FEW046 BKN300 13/09 Q1036 NOSIG RMK BLU BLU
  • 270350Z 02006KT 9999 FEW046 BKN300 13/10 Q1036 NOSIG RMK BLU BLU
  • 270320Z 01007KT 9999 FEW046 14/10 Q1035 NOSIG RMK BLU BLU

TAF TAF EGVN
Valid from the 27 at 06:00 until the 28 at 06:00 UTC


270422Z 2706/2806 02006KT 9999 FEW040



MET'MAP, your aeronautical weather chart ! - Copyright ORBIFLY December 2007 - Disclaimer

ORBIFLY MET'MAP TEAM :

Programming & Development : Alexandra Zaïnal
Concept & original design : Baudouin d'Aumeries
Assistance for programming : Marc-Olivier Méhu
Technical & hardware support : Manuel Goepfert

Contact : metmap@orbifly.com




SOURCES & CREDITS :

   NOAA